sensor_id;sensor_type;location;lat;lon;timestamp;temperature;humidity
61641;HTU21D;62201;49.966;8.342;2022-07-19T00:00:44;21.70;46.72
61641;HTU21D;62201;49.966;8.342;2022-07-19T00:03:13;21.69;46.79
61641;HTU21D;62201;49.966;8.342;2022-07-19T00:05:38;21.68;46.64
61641;HTU21D;62201;49.966;8.342;2022-07-19T00:08:04;21.66;46.64
61641;HTU21D;62201;49.966;8.342;2022-07-19T00:10:30;21.62;46.67
61641;HTU21D;62201;49.966;8.342;2022-07-19T00:12:55;21.59;46.72
61641;HTU21D;62201;49.966;8.342;2022-07-19T00:15:21;21.55;46.85
61641;HTU21D;62201;49.966;8.342;2022-07-19T00:17:48;21.50;47.06
61641;HTU21D;62201;49.966;8.342;2022-07-19T00:20:16;21.49;47.21
61641;HTU21D;62201;49.966;8.342;2022-07-19T00:22:43;21.45;47.51
61641;HTU21D;62201;49.966;8.342;2022-07-19T00:25:08;21.40;47.65
61641;HTU21D;62201;49.966;8.342;2022-07-19T00:27:34;21.35;47.86
61641;HTU21D;62201;49.966;8.342;2022-07-19T00:30:00;21.33;47.83
61641;HTU21D;62201;49.966;8.342;2022-07-19T00:32:25;21.29;48.15
61641;HTU21D;62201;49.966;8.342;2022-07-19T00:34:50;21.23;48.02
61641;HTU21D;62201;49.966;8.342;2022-07-19T00:37:16;21.19;48.16
61641;HTU21D;62201;49.966;8.342;2022-07-19T00:39:41;21.18;48.35
61641;HTU21D;62201;49.966;8.342;2022-07-19T00:42:06;21.16;48.60
61641;HTU21D;62201;49.966;8.342;2022-07-19T00:44:32;21.17;48.95
61641;HTU21D;62201;49.966;8.342;2022-07-19T00:46:58;21.10;49.40
61641;HTU21D;62201;49.966;8.342;2022-07-19T00:49:23;21.08;49.05
61641;HTU21D;62201;49.966;8.342;2022-07-19T00:51:50;21.05;49.33
61641;HTU21D;62201;49.966;8.342;2022-07-19T00:54:18;20.98;49.67
61641;HTU21D;62201;49.966;8.342;2022-07-19T00:56:48;20.90;50.69
61641;HTU21D;62201;49.966;8.342;2022-07-19T00:59:14;20.83;50.88
61641;HTU21D;62201;49.966;8.342;2022-07-19T01:01:39;20.84;50.69
61641;HTU21D;62201;49.966;8.342;2022-07-19T01:04:05;20.80;51.05
61641;HTU21D;62201;49.966;8.342;2022-07-19T01:06:31;20.78;51.75
61641;HTU21D;62201;49.966;8.342;2022-07-19T01:08:56;20.72;53.23
61641;HTU21D;62201;49.966;8.342;2022-07-19T01:11:22;20.66;53.79
61641;HTU21D;62201;49.966;8.342;2022-07-19T01:13:47;20.63;54.81
61641;HTU21D;62201;49.966;8.342;2022-07-19T01:16:14;20.57;55.36
61641;HTU21D;62201;49.966;8.342;2022-07-19T01:18:39;20.53;55.52
61641;HTU21D;62201;49.966;8.342;2022-07-19T01:21:07;20.49;55.93
61641;HTU21D;62201;49.966;8.342;2022-07-19T01:23:33;20.50;55.50
61641;HTU21D;62201;49.966;8.342;2022-07-19T01:25:58;20.40;56.78
61641;HTU21D;62201;49.966;8.342;2022-07-19T01:28:23;20.28;58.90
61641;HTU21D;62201;49.966;8.342;2022-07-19T01:30:49;20.01;60.12
61641;HTU21D;62201;49.966;8.342;2022-07-19T01:33:16;19.81;59.55
61641;HTU21D;62201;49.966;8.342;2022-07-19T01:35:41;19.73;60.12
61641;HTU21D;62201;49.966;8.342;2022-07-19T01:38:07;19.66;61.77
61641;HTU21D;62201;49.966;8.342;2022-07-19T01:40:32;19.50;62.91
61641;HTU21D;62201;49.966;8.342;2022-07-19T01:42:58;19.36;64.21
61641;HTU21D;62201;49.966;8.342;2022-07-19T01:45:23;19.26;63.71
61641;HTU21D;62201;49.966;8.342;2022-07-19T01:47:49;19.37;63.68
61641;HTU21D;62201;49.966;8.342;2022-07-19T01:50:16;19.51;63.67
61641;HTU21D;62201;49.966;8.342;2022-07-19T01:52:43;19.47;63.56
61641;HTU21D;62201;49.966;8.342;2022-07-19T01:55:08;19.48;63.83
61641;HTU21D;62201;49.966;8.342;2022-07-19T01:57:34;19.45;64.31
61641;HTU21D;62201;49.966;8.342;2022-07-19T02:00:00;19.42;64.48
61641;HTU21D;62201;49.966;8.342;2022-07-19T02:02:25;19.43;64.34
61641;HTU21D;62201;49.966;8.342;2022-07-19T02:04:51;19.45;64.16
61641;HTU21D;62201;49.966;8.342;2022-07-19T02:07:16;19.45;64.05
61641;HTU21D;62201;49.966;8.342;2022-07-19T02:09:42;19.47;63.94
61641;HTU21D;62201;49.966;8.342;2022-07-19T02:12:07;19.44;64.01
61641;HTU21D;62201;49.966;8.342;2022-07-19T02:14:33;19.43;64.02
61641;HTU21D;62201;49.966;8.342;2022-07-19T02:16:58;19.42;63.84
61641;HTU21D;62201;49.966;8.342;2022-07-19T02:19:24;19.44;63.50
61641;HTU21D;62201;49.966;8.342;2022-07-19T02:21:49;19.44;63.09
61641;HTU21D;62201;49.966;8.342;2022-07-19T02:24:15;19.42;62.70
61641;HTU21D;62201;49.966;8.342;2022-07-19T02:26:40;19.39;62.36
61641;HTU21D;62201;49.966;8.342;2022-07-19T02:29:06;19.36;61.99
61641;HTU21D;62201;49.966;8.342;2022-07-19T02:31:32;19.38;61.54
61641;HTU21D;62201;49.966;8.342;2022-07-19T02:33:58;19.37;61.18
61641;HTU21D;62201;49.966;8.342;2022-07-19T02:36:24;19.35;60.90
61641;HTU21D;62201;49.966;8.342;2022-07-19T02:38:50;19.38;60.51
61641;HTU21D;62201;49.966;8.342;2022-07-19T02:41:16;19.39;59.92
61641;HTU21D;62201;49.966;8.342;2022-07-19T02:43:42;19.38;59.80
61641;HTU21D;62201;49.966;8.342;2022-07-19T02:46:08;19.44;59.25
61641;HTU21D;62201;49.966;8.342;2022-07-19T02:48:33;19.45;58.64
61641;HTU21D;62201;49.966;8.342;2022-07-19T02:50:58;19.44;58.74
61641;HTU21D;62201;49.966;8.342;2022-07-19T02:53:24;19.43;58.58
61641;HTU21D;62201;49.966;8.342;2022-07-19T02:55:50;19.42;58.54
61641;HTU21D;62201;49.966;8.342;2022-07-19T02:58:15;19.41;58.45
61641;HTU21D;62201;49.966;8.342;2022-07-19T03:00:41;19.33;58.52
61641;HTU21D;62201;49.966;8.342;2022-07-19T03:03:07;19.28;58.74
61641;HTU21D;62201;49.966;8.342;2022-07-19T03:05:50;19.23;58.85
61641;HTU21D;62201;49.966;8.342;2022-07-19T03:08:16;19.18;58.90
61641;HTU21D;62201;49.966;8.342;2022-07-19T03:10:42;19.15;59.09
61641;HTU21D;62201;49.966;8.342;2022-07-19T03:13:07;19.08;58.91
61641;HTU21D;62201;49.966;8.342;2022-07-19T03:15:34;19.06;59.02
61641;HTU21D;62201;49.966;8.342;2022-07-19T03:18:00;19.00;58.92
61641;HTU21D;62201;49.966;8.342;2022-07-19T03:20:25;18.96;59.04
61641;HTU21D;62201;49.966;8.342;2022-07-19T03:22:51;18.93;59.32
61641;HTU21D;62201;49.966;8.342;2022-07-19T03:25:16;18.91;59.29
61641;HTU21D;62201;49.966;8.342;2022-07-19T03:27:41;18.91;59.09
61641;HTU21D;62201;49.966;8.342;2022-07-19T03:30:07;18.92;59.19
61641;HTU21D;62201;49.966;8.342;2022-07-19T03:32:33;18.86;59.26
61641;HTU21D;62201;49.966;8.342;2022-07-19T03:34:58;18.83;59.24
61641;HTU21D;62201;49.966;8.342;2022-07-19T03:37:23;18.82;59.35
61641;HTU21D;62201;49.966;8.342;2022-07-19T03:39:49;18.85;59.28
61641;HTU21D;62201;49.966;8.342;2022-07-19T03:42:14;18.83;59.47
61641;HTU21D;62201;49.966;8.342;2022-07-19T03:44:40;18.84;59.60
61641;HTU21D;62201;49.966;8.342;2022-07-19T03:47:05;18.86;59.38
61641;HTU21D;62201;49.966;8.342;2022-07-19T03:49:30;18.85;59.43
61641;HTU21D;62201;49.966;8.342;2022-07-19T03:51:56;18.87;59.44
61641;HTU21D;62201;49.966;8.342;2022-07-19T03:54:21;18.85;59.80
61641;HTU21D;62201;49.966;8.342;2022-07-19T03:56:46;18.92;59.73
61641;HTU21D;62201;49.966;8.342;2022-07-19T03:59:12;18.96;59.76
61641;HTU21D;62201;49.966;8.342;2022-07-19T04:01:37;18.94;59.94
61641;HTU21D;62201;49.966;8.342;2022-07-19T04:04:04;18.93;59.70
61641;HTU21D;62201;49.966;8.342;2022-07-19T04:06:29;18.94;59.51
61641;HTU21D;62201;49.966;8.342;2022-07-19T04:08:55;18.87;59.51
61641;HTU21D;62201;49.966;8.342;2022-07-19T04:11:20;18.87;60.05
61641;HTU21D;62201;49.966;8.342;2022-07-19T04:13:45;18.88;60.02
61641;HTU21D;62201;49.966;8.342;2022-07-19T04:16:11;18.94;59.59
61641;HTU21D;62201;49.966;8.342;2022-07-19T04:18:36;18.93;59.43
61641;HTU21D;62201;49.966;8.342;2022-07-19T04:21:04;18.93;59.32
61641;HTU21D;62201;49.966;8.342;2022-07-19T04:23:29;18.94;59.25
61641;HTU21D;62201;49.966;8.342;2022-07-19T04:25:55;18.97;59.23
61641;HTU21D;62201;49.966;8.342;2022-07-19T04:28:20;19.02;59.20
61641;HTU21D;62201;49.966;8.342;2022-07-19T04:30:46;19.06;59.19
61641;HTU21D;62201;49.966;8.342;2022-07-19T04:33:14;19.07;59.37
61641;HTU21D;62201;49.966;8.342;2022-07-19T04:35:39;19.15;59.14
61641;HTU21D;62201;49.966;8.342;2022-07-19T04:38:05;19.21;59.25
61641;HTU21D;62201;49.966;8.342;2022-07-19T04:40:30;19.25;58.83
61641;HTU21D;62201;49.966;8.342;2022-07-19T04:42:56;19.31;58.08
61641;HTU21D;62201;49.966;8.342;2022-07-19T04:45:21;19.40;57.87
61641;HTU21D;62201;49.966;8.342;2022-07-19T04:47:46;19.50;57.58
61641;HTU21D;62201;49.966;8.342;2022-07-19T04:50:12;19.61;57.10
61641;HTU21D;62201;49.966;8.342;2022-07-19T04:52:37;19.72;55.23
61641;HTU21D;62201;49.966;8.342;2022-07-19T04:55:03;19.84;54.69
61641;HTU21D;62201;49.966;8.342;2022-07-19T04:57:28;19.94;54.61
61641;HTU21D;62201;49.966;8.342;2022-07-19T04:59:54;20.07;54.26
61641;HTU21D;62201;49.966;8.342;2022-07-19T05:02:19;20.25;52.84
61641;HTU21D;62201;49.966;8.342;2022-07-19T05:04:44;20.42;52.49
61641;HTU21D;62201;49.966;8.342;2022-07-19T05:07:10;20.57;51.24
61641;HTU21D;62201;49.966;8.342;2022-07-19T05:09:35;20.75;51.46
61641;HTU21D;62201;49.966;8.342;2022-07-19T05:12:00;21.01;51.00
61641;HTU21D;62201;49.966;8.342;2022-07-19T05:14:30;21.23;50.69
61641;HTU21D;62201;49.966;8.342;2022-07-19T05:16:55;21.36;50.92
61641;HTU21D;62201;49.966;8.342;2022-07-19T05:19:21;21.51;51.18
61641;HTU21D;62201;49.966;8.342;2022-07-19T05:21:46;21.74;51.19
61641;HTU21D;62201;49.966;8.342;2022-07-19T05:24:12;21.89;51.43
61641;HTU21D;62201;49.966;8.342;2022-07-19T05:26:37;22.08;51.33
61641;HTU21D;62201;49.966;8.342;2022-07-19T05:29:03;22.25;51.06
61641;HTU21D;62201;49.966;8.342;2022-07-19T05:31:29;22.50;50.79
61641;HTU21D;62201;49.966;8.342;2022-07-19T05:33:55;22.69;49.89
61641;HTU21D;62201;49.966;8.342;2022-07-19T05:36:20;22.73;50.20
61641;HTU21D;62201;49.966;8.342;2022-07-19T05:38:45;22.95;49.51
61641;HTU21D;62201;49.966;8.342;2022-07-19T05:41:11;23.18;48.79
61641;HTU21D;62201;49.966;8.342;2022-07-19T05:43:37;23.35;48.02
61641;HTU21D;62201;49.966;8.342;2022-07-19T05:46:04;23.54;46.76
61641;HTU21D;62201;49.966;8.342;2022-07-19T05:48:30;23.47;46.45
61641;HTU21D;62201;49.966;8.342;2022-07-19T05:50:57;23.69;45.86
61641;HTU21D;62201;49.966;8.342;2022-07-19T05:53:23;23.84;44.61
61641;HTU21D;62201;49.966;8.342;2022-07-19T05:55:48;23.90;44.41
61641;HTU21D;62201;49.966;8.342;2022-07-19T05:58:14;24.14;44.03
61641;HTU21D;62201;49.966;8.342;2022-07-19T06:00:42;24.14;42.77
61641;HTU21D;62201;49.966;8.342;2022-07-19T06:03:27;24.25;42.13
61641;HTU21D;62201;49.966;8.342;2022-07-19T06:05:53;24.39;42.52
61641;HTU21D;62201;49.966;8.342;2022-07-19T06:08:18;24.42;42.15
61641;HTU21D;62201;49.966;8.342;2022-07-19T06:10:43;24.56;40.87
61641;HTU21D;62201;49.966;8.342;2022-07-19T06:13:09;24.63;41.28
61641;HTU21D;62201;49.966;8.342;2022-07-19T06:15:34;24.89;40.89
61641;HTU21D;62201;49.966;8.342;2022-07-19T06:18:00;25.07;40.12
61641;HTU21D;62201;49.966;8.342;2022-07-19T06:20:25;25.29;39.78
61641;HTU21D;62201;49.966;8.342;2022-07-19T06:22:50;25.54;39.44
61641;HTU21D;62201;49.966;8.342;2022-07-19T06:25:16;25.74;38.64
61641;HTU21D;62201;49.966;8.342;2022-07-19T06:27:41;25.93;38.17
61641;HTU21D;62201;49.966;8.342;2022-07-19T06:30:07;25.98;36.98
61641;HTU21D;62201;49.966;8.342;2022-07-19T06:32:32;26.03;37.40
61641;HTU21D;62201;49.966;8.342;2022-07-19T06:34:58;26.15;36.56
61641;HTU21D;62201;49.966;8.342;2022-07-19T06:37:23;26.33;36.59
61641;HTU21D;62201;49.966;8.342;2022-07-19T06:39:48;26.58;36.34
61641;HTU21D;62201;49.966;8.342;2022-07-19T06:42:14;26.70;35.21
61641;HTU21D;62201;49.966;8.342;2022-07-19T06:44:39;26.72;34.73
61641;HTU21D;62201;49.966;8.342;2022-07-19T06:47:04;26.85;34.47
61641;HTU21D;62201;49.966;8.342;2022-07-19T06:49:30;26.87;34.33
61641;HTU21D;62201;49.966;8.342;2022-07-19T06:51:55;26.92;33.86
61641;HTU21D;62201;49.966;8.342;2022-07-19T06:54:21;27.06;33.09
61641;HTU21D;62201;49.966;8.342;2022-07-19T06:56:46;26.96;31.95
61641;HTU21D;62201;49.966;8.342;2022-07-19T06:59:11;27.04;33.23
61641;HTU21D;62201;49.966;8.342;2022-07-19T07:01:37;27.25;31.96
61641;HTU21D;62201;49.966;8.342;2022-07-19T07:04:02;27.19;31.19
61641;HTU21D;62201;49.966;8.342;2022-07-19T07:06:28;26.96;31.75
61641;HTU21D;62201;49.966;8.342;2022-07-19T07:08:53;27.14;32.34
61641;HTU21D;62201;49.966;8.342;2022-07-19T07:11:18;27.43;31.09
61641;HTU21D;62201;49.966;8.342;2022-07-19T07:13:44;27.45;31.32
61641;HTU21D;62201;49.966;8.342;2022-07-19T07:16:09;27.46;31.15
61641;HTU21D;62201;49.966;8.342;2022-07-19T07:18:34;27.58;30.67
61641;HTU21D;62201;49.966;8.342;2022-07-19T07:21:00;27.78;30.77
61641;HTU21D;62201;49.966;8.342;2022-07-19T07:23:25;27.95;30.43
61641;HTU21D;62201;49.966;8.342;2022-07-19T07:25:51;28.17;30.51
61641;HTU21D;62201;49.966;8.342;2022-07-19T07:28:19;28.14;29.65
61641;HTU21D;62201;49.966;8.342;2022-07-19T07:30:44;28.30;30.10
61641;HTU21D;62201;49.966;8.342;2022-07-19T07:33:09;28.46;29.66
61641;HTU21D;62201;49.966;8.342;2022-07-19T07:35:35;28.54;29.97
61641;HTU21D;62201;49.966;8.342;2022-07-19T07:38:00;28.70;29.72
61641;HTU21D;62201;49.966;8.342;2022-07-19T07:40:26;28.87;29.57
61641;HTU21D;62201;49.966;8.342;2022-07-19T07:42:51;28.80;29.00
61641;HTU21D;62201;49.966;8.342;2022-07-19T07:45:16;28.78;29.54
61641;HTU21D;62201;49.966;8.342;2022-07-19T07:47:42;28.75;29.64
61641;HTU21D;62201;49.966;8.342;2022-07-19T07:50:07;29.08;29.26
61641;HTU21D;62201;49.966;8.342;2022-07-19T07:52:33;29.35;28.75
61641;HTU21D;62201;49.966;8.342;2022-07-19T07:54:59;29.52;28.36
61641;HTU21D;62201;49.966;8.342;2022-07-19T07:57:24;29.67;28.52
61641;HTU21D;62201;49.966;8.342;2022-07-19T07:59:50;29.75;28.68
61641;HTU21D;62201;49.966;8.342;2022-07-19T08:02:15;29.95;28.54
61641;HTU21D;62201;49.966;8.342;2022-07-19T08:04:40;30.04;28.71
61641;HTU21D;62201;49.966;8.342;2022-07-19T08:07:06;30.17;28.39
61641;HTU21D;62201;49.966;8.342;2022-07-19T08:09:31;30.31;28.21
61641;HTU21D;62201;49.966;8.342;2022-07-19T08:11:57;30.41;28.05
61641;HTU21D;62201;49.966;8.342;2022-07-19T08:14:22;30.42;27.81
61641;HTU21D;62201;49.966;8.342;2022-07-19T08:16:48;30.66;28.00
61641;HTU21D;62201;49.966;8.342;2022-07-19T08:19:13;30.84;27.46
61641;HTU21D;62201;49.966;8.342;2022-07-19T08:21:38;30.85;26.59
61641;HTU21D;62201;49.966;8.342;2022-07-19T08:24:04;30.81;26.94
61641;HTU21D;62201;49.966;8.342;2022-07-19T08:26:30;31.00;26.83
61641;HTU21D;62201;49.966;8.342;2022-07-19T08:28:56;31.18;26.46
61641;HTU21D;62201;49.966;8.342;2022-07-19T08:31:22;31.05;26.28
61641;HTU21D;62201;49.966;8.342;2022-07-19T08:33:47;31.09;26.05
61641;HTU21D;62201;49.966;8.342;2022-07-19T08:36:12;31.27;26.02
61641;HTU21D;62201;49.966;8.342;2022-07-19T08:38:39;31.46;26.01
61641;HTU21D;62201;49.966;8.342;2022-07-19T08:41:05;31.48;25.91
61641;HTU21D;62201;49.966;8.342;2022-07-19T08:43:30;31.56;25.75
61641;HTU21D;62201;49.966;8.342;2022-07-19T08:46:01;31.58;25.29
61641;HTU21D;62201;49.966;8.342;2022-07-19T08:48:30;31.55;24.96
61641;HTU21D;62201;49.966;8.342;2022-07-19T08:50:56;31.65;25.07
61641;HTU21D;62201;49.966;8.342;2022-07-19T08:53:21;31.84;24.92
61641;HTU21D;62201;49.966;8.342;2022-07-19T08:55:48;32.00;25.01
61641;HTU21D;62201;49.966;8.342;2022-07-19T08:58:15;32.00;24.88
61641;HTU21D;62201;49.966;8.342;2022-07-19T09:00:40;32.17;23.70
61641;HTU21D;62201;49.966;8.342;2022-07-19T09:03:07;32.25;24.20
61641;HTU21D;62201;49.966;8.342;2022-07-19T09:05:33;32.54;23.78
61641;HTU21D;62201;49.966;8.342;2022-07-19T09:08:14;32.83;22.85
61641;HTU21D;62201;49.966;8.342;2022-07-19T09:10:43;32.78;23.22
61641;HTU21D;62201;49.966;8.342;2022-07-19T09:13:15;32.85;22.03
61641;HTU21D;62201;49.966;8.342;2022-07-19T09:15:59;33.02;22.20
61641;HTU21D;62201;49.966;8.342;2022-07-19T09:18:27;33.25;21.64
61641;HTU21D;62201;49.966;8.342;2022-07-19T09:21:01;33.25;21.87
61641;HTU21D;62201;49.966;8.342;2022-07-19T09:23:28;33.31;21.88
61641;HTU21D;62201;49.966;8.342;2022-07-19T09:25:59;33.50;21.89
61641;HTU21D;62201;49.966;8.342;2022-07-19T09:28:26;33.70;21.53
61641;HTU21D;62201;49.966;8.342;2022-07-19T09:30:53;33.80;21.07
61641;HTU21D;62201;49.966;8.342;2022-07-19T09:33:20;33.97;19.82
61641;HTU21D;62201;49.966;8.342;2022-07-19T09:35:57;34.15;19.70
61641;HTU21D;62201;49.966;8.342;2022-07-19T09:40:52;34.26;19.71
61641;HTU21D;62201;49.966;8.342;2022-07-19T09:43:18;34.18;20.34
61641;HTU21D;62201;49.966;8.342;2022-07-19T09:45:45;34.27;20.05
61641;HTU21D;62201;49.966;8.342;2022-07-19T09:48:11;34.47;19.79
61641;HTU21D;62201;49.966;8.342;2022-07-19T09:50:36;34.51;19.87
61641;HTU21D;62201;49.966;8.342;2022-07-19T09:53:04;34.50;20.24
61641;HTU21D;62201;49.966;8.342;2022-07-19T09:55:30;34.27;20.47
61641;HTU21D;62201;49.966;8.342;2022-07-19T09:57:57;34.12;19.77
61641;HTU21D;62201;49.966;8.342;2022-07-19T10:00:24;34.07;20.21
61641;HTU21D;62201;49.966;8.342;2022-07-19T10:05:16;34.29;20.02
61641;HTU21D;62201;49.966;8.342;2022-07-19T10:07:41;34.31;19.60
61641;HTU21D;62201;49.966;8.342;2022-07-19T10:10:09;34.70;19.22
61641;HTU21D;62201;49.966;8.342;2022-07-19T10:12:39;34.96;18.99
61641;HTU21D;62201;49.966;8.342;2022-07-19T10:15:06;34.65;19.57
61641;HTU21D;62201;49.966;8.342;2022-07-19T10:20:08;35.09;19.15
61641;HTU21D;62201;49.966;8.342;2022-07-19T10:22:38;35.43;18.32
61641;HTU21D;62201;49.966;8.342;2022-07-19T10:32:30;35.13;18.15
61641;HTU21D;62201;49.966;8.342;2022-07-19T10:40:43;35.23;17.70
61641;HTU21D;62201;49.966;8.342;2022-07-19T10:43:11;35.05;17.35
61641;HTU21D;62201;49.966;8.342;2022-07-19T10:45:39;35.18;17.42
61641;HTU21D;62201;49.966;8.342;2022-07-19T10:48:13;35.15;17.58
61641;HTU21D;62201;49.966;8.342;2022-07-19T10:50:50;35.16;17.18
61641;HTU21D;62201;49.966;8.342;2022-07-19T10:56:30;35.27;17.26
61641;HTU21D;62201;49.966;8.342;2022-07-19T10:58:58;35.53;17.19
61641;HTU21D;62201;49.966;8.342;2022-07-19T11:01:26;35.81;16.80
61641;HTU21D;62201;49.966;8.342;2022-07-19T11:03:54;36.17;16.80
61641;HTU21D;62201;49.966;8.342;2022-07-19T11:06:25;36.34;16.27
61641;HTU21D;62201;49.966;8.342;2022-07-19T11:08:57;36.13;16.59
61641;HTU21D;62201;49.966;8.342;2022-07-19T11:11:23;36.19;16.58
61641;HTU21D;62201;49.966;8.342;2022-07-19T11:13:54;36.01;16.39
61641;HTU21D;62201;49.966;8.342;2022-07-19T11:16:21;36.10;16.42
61641;HTU21D;62201;49.966;8.342;2022-07-19T11:18:49;36.13;16.30
61641;HTU21D;62201;49.966;8.342;2022-07-19T11:21:15;35.98;16.99
61641;HTU21D;62201;49.966;8.342;2022-07-19T11:23:41;36.00;16.82
61641;HTU21D;62201;49.966;8.342;2022-07-19T11:26:18;35.84;16.73
61641;HTU21D;62201;49.966;8.342;2022-07-19T11:28:45;35.99;17.46
61641;HTU21D;62201;49.966;8.342;2022-07-19T11:31:14;36.39;16.77
61641;HTU21D;62201;49.966;8.342;2022-07-19T11:33:40;36.74;16.59
61641;HTU21D;62201;49.966;8.342;2022-07-19T11:36:05;36.59;16.68
61641;HTU21D;62201;49.966;8.342;2022-07-19T11:43:39;36.30;16.69
61641;HTU21D;62201;49.966;8.342;2022-07-19T11:46:05;36.70;16.44
61641;HTU21D;62201;49.966;8.342;2022-07-19T11:48:31;36.85;15.79
61641;HTU21D;62201;49.966;8.342;2022-07-19T11:51:01;36.69;15.64
61641;HTU21D;62201;49.966;8.342;2022-07-19T11:53:27;36.57;16.28
61641;HTU21D;62201;49.966;8.342;2022-07-19T11:55:52;36.88;15.94
61641;HTU21D;62201;49.966;8.342;2022-07-19T11:58:18;37.41;14.69
61641;HTU21D;62201;49.966;8.342;2022-07-19T12:00:43;37.36;14.42
61641;HTU21D;62201;49.966;8.342;2022-07-19T12:03:14;37.78;14.63
61641;HTU21D;62201;49.966;8.342;2022-07-19T12:05:54;38.44;14.35
61641;HTU21D;62201;49.966;8.342;2022-07-19T12:08:19;38.70;14.01
61641;HTU21D;62201;49.966;8.342;2022-07-19T12:10:46;38.65;14.20
61641;HTU21D;62201;49.966;8.342;2022-07-19T12:13:15;38.67;14.04
61641;HTU21D;62201;49.966;8.342;2022-07-19T12:15:54;38.19;14.79
61641;HTU21D;62201;49.966;8.342;2022-07-19T12:18:21;38.37;14.68
61641;HTU21D;62201;49.966;8.342;2022-07-19T12:21:28;38.35;14.30
61641;HTU21D;62201;49.966;8.342;2022-07-19T12:24:18;38.90;13.52
61641;HTU21D;62201;49.966;8.342;2022-07-19T12:29:25;38.90;13.50
61641;HTU21D;62201;49.966;8.342;2022-07-19T12:31:55;39.22;13.17
61641;HTU21D;62201;49.966;8.342;2022-07-19T12:34:21;39.12;13.91
61641;HTU21D;62201;49.966;8.342;2022-07-19T12:36:46;39.44;13.12
61641;HTU21D;62201;49.966;8.342;2022-07-19T12:39:29;39.89;11.30
61641;HTU21D;62201;49.966;8.342;2022-07-19T12:42:05;40.14;11.94
61641;HTU21D;62201;49.966;8.342;2022-07-19T12:44:32;40.39;11.57
61641;HTU21D;62201;49.966;8.342;2022-07-19T12:46:58;40.01;12.02
61641;HTU21D;62201;49.966;8.342;2022-07-19T12:49:24;39.53;12.42
61641;HTU21D;62201;49.966;8.342;2022-07-19T12:51:50;40.01;12.14
61641;HTU21D;62201;49.966;8.342;2022-07-19T12:54:16;40.00;11.46
61641;HTU21D;62201;49.966;8.342;2022-07-19T12:56:41;39.98;11.06
61641;HTU21D;62201;49.966;8.342;2022-07-19T12:59:07;40.01;11.37
61641;HTU21D;62201;49.966;8.342;2022-07-19T13:01:51;40.24;10.49
61641;HTU21D;62201;49.966;8.342;2022-07-19T13:04:16;39.91;11.03
61641;HTU21D;62201;49.966;8.342;2022-07-19T13:06:42;40.02;10.98
61641;HTU21D;62201;49.966;8.342;2022-07-19T13:09:07;40.77;10.51
61641;HTU21D;62201;49.966;8.342;2022-07-19T13:11:35;41.04;10.94
61641;HTU21D;62201;49.966;8.342;2022-07-19T13:14:00;41.00;9.77
61641;HTU21D;62201;49.966;8.342;2022-07-19T13:16:26;40.66;9.75
61641;HTU21D;62201;49.966;8.342;2022-07-19T13:18:51;40.55;10.33
61641;HTU21D;62201;49.966;8.342;2022-07-19T13:21:17;40.62;10.38
61641;HTU21D;62201;49.966;8.342;2022-07-19T13:23:42;40.77;9.96
61641;HTU21D;62201;49.966;8.342;2022-07-19T13:26:08;41.09;9.72
61641;HTU21D;62201;49.966;8.342;2022-07-19T13:28:33;41.33;8.72
61641;HTU21D;62201;49.966;8.342;2022-07-19T13:31:00;41.37;8.69
61641;HTU21D;62201;49.966;8.342;2022-07-19T13:33:26;41.16;9.09
61641;HTU21D;62201;49.966;8.342;2022-07-19T13:35:51;41.60;9.03
61641;HTU21D;62201;49.966;8.342;2022-07-19T13:38:16;41.95;8.48
61641;HTU21D;62201;49.966;8.342;2022-07-19T13:40:42;42.11;8.11
61641;HTU21D;62201;49.966;8.342;2022-07-19T13:43:07;42.16;7.98
61641;HTU21D;62201;49.966;8.342;2022-07-19T13:45:33;42.38;8.59
61641;HTU21D;62201;49.966;8.342;2022-07-19T13:47:58;42.29;8.56
61641;HTU21D;62201;49.966;8.342;2022-07-19T13:50:24;42.29;8.44
61641;HTU21D;62201;49.966;8.342;2022-07-19T13:52:49;42.19;8.39
61641;HTU21D;62201;49.966;8.342;2022-07-19T13:55:14;41.44;8.79
61641;HTU21D;62201;49.966;8.342;2022-07-19T13:57:40;41.80;8.59
61641;HTU21D;62201;49.966;8.342;2022-07-19T14:00:06;41.92;8.37
61641;HTU21D;62201;49.966;8.342;2022-07-19T14:02:33;42.07;8.18
61641;HTU21D;62201;49.966;8.342;2022-07-19T14:04:58;42.24;8.12
61641;HTU21D;62201;49.966;8.342;2022-07-19T14:07:24;42.24;8.49
61641;HTU21D;62201;49.966;8.342;2022-07-19T14:09:49;42.41;8.52
61641;HTU21D;62201;49.966;8.342;2022-07-19T14:12:15;42.28;8.05
61641;HTU21D;62201;49.966;8.342;2022-07-19T14:14:40;42.40;7.90
61641;HTU21D;62201;49.966;8.342;2022-07-19T14:17:06;42.29;7.44
61641;HTU21D;62201;49.966;8.342;2022-07-19T14:19:31;42.07;7.88
61641;HTU21D;62201;49.966;8.342;2022-07-19T14:22:00;42.08;7.87
61641;HTU21D;62201;49.966;8.342;2022-07-19T14:24:25;42.31;7.57
61641;HTU21D;62201;49.966;8.342;2022-07-19T14:26:51;42.21;7.64
61641;HTU21D;62201;49.966;8.342;2022-07-19T14:29:16;42.16;7.59
61641;HTU21D;62201;49.966;8.342;2022-07-19T14:31:42;42.44;7.37
61641;HTU21D;62201;49.966;8.342;2022-07-19T14:34:07;42.66;7.44
61641;HTU21D;62201;49.966;8.342;2022-07-19T14:36:32;42.49;7.21
61641;HTU21D;62201;49.966;8.342;2022-07-19T14:38:58;42.48;7.40
61641;HTU21D;62201;49.966;8.342;2022-07-19T14:41:23;42.16;7.39
61641;HTU21D;62201;49.966;8.342;2022-07-19T14:43:48;41.85;7.33
61641;HTU21D;62201;49.966;8.342;2022-07-19T14:46:14;41.73;7.58
61641;HTU21D;62201;49.966;8.342;2022-07-19T14:48:39;41.75;7.57
61641;HTU21D;62201;49.966;8.342;2022-07-19T14:51:04;41.70;7.41
61641;HTU21D;62201;49.966;8.342;2022-07-19T14:53:30;41.31;7.69
61641;HTU21D;62201;49.966;8.342;2022-07-19T14:55:55;41.30;8.07
61641;HTU21D;62201;49.966;8.342;2022-07-19T14:58:21;41.19;7.98
61641;HTU21D;62201;49.966;8.342;2022-07-19T15:00:46;41.27;7.46
61641;HTU21D;62201;49.966;8.342;2022-07-19T15:03:11;41.25;7.54
61641;HTU21D;62201;49.966;8.342;2022-07-19T15:05:37;40.77;7.79
61641;HTU21D;62201;49.966;8.342;2022-07-19T15:08:02;40.56;8.23
61641;HTU21D;62201;49.966;8.342;2022-07-19T15:10:28;40.23;8.27
61641;HTU21D;62201;49.966;8.342;2022-07-19T15:12:53;39.96;8.49
61641;HTU21D;62201;49.966;8.342;2022-07-19T15:15:18;39.83;8.39
61641;HTU21D;62201;49.966;8.342;2022-07-19T15:17:44;39.73;8.36
61641;HTU21D;62201;49.966;8.342;2022-07-19T15:20:09;39.69;8.45
61641;HTU21D;62201;49.966;8.342;2022-07-19T15:22:35;39.52;8.73
61641;HTU21D;62201;49.966;8.342;2022-07-19T15:25:03;39.33;8.82
61641;HTU21D;62201;49.966;8.342;2022-07-19T15:27:29;39.14;8.90
61641;HTU21D;62201;49.966;8.342;2022-07-19T15:29:54;39.05;9.57
61641;HTU21D;62201;49.966;8.342;2022-07-19T15:32:20;39.13;9.17
61641;HTU21D;62201;49.966;8.342;2022-07-19T15:34:45;39.08;9.28
61641;HTU21D;62201;49.966;8.342;2022-07-19T15:37:11;38.98;9.35
61641;HTU21D;62201;49.966;8.342;2022-07-19T15:39:36;39.08;9.37
61641;HTU21D;62201;49.966;8.342;2022-07-19T15:42:01;39.21;9.61
61641;HTU21D;62201;49.966;8.342;2022-07-19T15:44:27;39.04;9.74